Time;durP1;ratioP1;P1;durP2;ratioP2;P2;SDS_P1;SDS_P2;PMS_P1;PMS_P2;Temp;Humidity;BMP_temperature;BMP_pressure;BME280_temperature;BME280_humidity;BME280_pressure;Samples;Min_cycle;Max_cycle;Signal;HPM_P1;HPM_P2
2023/12/18 00:00:29;;;;;;;15.13;10.77;;;10.40;62.50;;;;;;5105821;27;20175;-88
2023/12/18 00:02:54;;;;;;;15.67;11.03;;;10.50;62.40;;;;;;5134935;27;20202;-87
2023/12/18 00:05:20;;;;;;;14.30;10.10;;;10.40;62.30;;;;;;5115161;27;20191;-87
2023/12/18 00:07:45;;;;;;;16.63;10.90;;;10.40;62.50;;;;;;5099648;27;20671;-88
2023/12/18 00:10:11;;;;;;;19.57;11.77;;;10.40;62.50;;;;;;5116583;27;20179;-88
2023/12/18 00:12:37;;;;;;;17.73;10.40;;;10.40;62.40;;;;;;5116108;27;20175;-89
2023/12/18 00:15:03;;;;;;;15.33;10.97;;;10.40;62.40;;;;;;5134095;27;20203;-87
2023/12/18 00:17:29;;;;;;;13.83;10.00;;;10.40;62.30;;;;;;5116129;27;20252;-88
2023/12/18 00:19:55;;;;;;;13.87;10.63;;;10.30;62.20;;;;;;5115979;27;20206;-86
2023/12/18 00:22:20;;;;;;;15.23;10.37;;;10.40;62.70;;;;;;5116195;27;20189;-87
2023/12/18 00:24:46;;;;;;;16.20;10.93;;;10.30;62.70;;;;;;5116316;27;20175;-90
2023/12/18 00:27:11;;;;;;;16.10;11.30;;;10.50;62.90;;;;;;5116378;27;20262;-90
2023/12/18 00:29:39;;;;;;;16.50;10.77;;;10.30;62.30;;;;;;5116255;27;20186;-89
2023/12/18 00:32:05;;;;;;;13.97;10.03;;;10.30;62.60;;;;;;5115942;27;20179;-86
2023/12/18 00:34:31;;;;;;;18.83;10.63;;;10.40;62.80;;;;;;5115636;27;20211;-87
2023/12/18 00:36:56;;;;;;;16.93;11.27;;;10.40;62.90;;;;;;5115677;27;20515;-91
2023/12/18 00:39:22;;;;;;;15.00;10.17;;;10.50;63.20;;;;;;5116374;27;20179;-89
2023/12/18 00:41:48;;;;;;;14.60;9.80;;;10.60;63.20;;;;;;5115747;27;20171;-87
2023/12/18 00:44:13;;;;;;;14.87;10.83;;;10.60;62.50;;;;;;5116324;27;20190;-88
2023/12/18 00:46:39;;;;;;;15.17;10.60;;;10.60;62.60;;;;;;5115482;27;20174;-89
2023/12/18 00:49:04;;;;;;;13.53;10.07;;;10.60;62.20;;;;;;5115283;27;20171;-87
2023/12/18 00:51:30;;;;;;;16.53;11.17;;;10.50;62.10;;;;;;5115703;27;20187;-88
2023/12/18 00:53:56;;;;;;;13.70;9.73;;;10.50;61.80;;;;;;5109686;28;20657;-87
2023/12/18 00:56:21;;;;;;;15.70;10.40;;;10.60;62.30;;;;;;5105012;27;20186;-88
2023/12/18 00:58:47;;;;;;;14.57;9.67;;;10.50;62.60;;;;;;5115227;28;20179;-87
2023/12/18 01:01:12;;;;;;;14.47;10.20;;;10.60;62.30;;;;;;5126867;27;20240;-89
2023/12/18 01:03:40;;;;;;;15.07;10.53;;;10.60;62.30;;;;;;5114672;27;20703;-87
2023/12/18 01:06:05;;;;;;;16.17;11.17;;;10.60;62.10;;;;;;5115144;28;20186;-88
2023/12/18 01:08:31;;;;;;;17.60;11.17;;;10.50;62.00;;;;;;5115697;28;20266;-87
2023/12/18 01:10:56;;;;;;;13.57;10.07;;;10.50;62.00;;;;;;5115831;28;20220;-88
2023/12/18 01:13:23;;;;;;;16.00;9.80;;;10.60;62.40;;;;;;5098814;28;20235;-87
2023/12/18 01:15:48;;;;;;;15.40;10.77;;;10.60;62.20;;;;;;5112080;28;20205;-89
2023/12/18 01:18:14;;;;;;;14.43;10.40;;;10.60;62.20;;;;;;5115601;28;20262;-86
2023/12/18 01:20:39;;;;;;;16.37;10.90;;;10.60;61.80;;;;;;5115076;28;20698;-90
2023/12/18 01:23:05;;;;;;;17.87;10.87;;;10.60;61.80;;;;;;5116110;28;20178;-87
2023/12/18 01:25:31;;;;;;;17.43;11.17;;;10.50;61.80;;;;;;5133442;28;20195;-89
2023/12/18 01:27:57;;;;;;;14.30;10.67;;;10.50;62.10;;;;;;5119033;27;20171;-89
2023/12/18 01:30:23;;;;;;;14.33;10.80;;;10.60;61.90;;;;;;5110373;28;20652;-89
2023/12/18 01:32:48;;;;;;;11.93;9.57;;;10.50;61.90;;;;;;5110936;27;20262;-88
2023/12/18 01:35:14;;;;;;;14.10;10.37;;;10.60;62.10;;;;;;5119400;27;20203;-89
2023/12/18 01:37:40;;;;;;;15.27;10.63;;;10.60;61.90;;;;;;5120974;27;20226;-90
2023/12/18 01:40:06;;;;;;;14.80;10.87;;;10.60;61.80;;;;;;5119463;27;20171;-87
2023/12/18 01:42:32;;;;;;;14.33;11.20;;;10.60;62.10;;;;;;5118985;27;20274;-88
2023/12/18 01:44:58;;;;;;;13.63;10.60;;;10.80;61.80;;;;;;5114087;28;20260;-87
2023/12/18 01:47:23;;;;;;;17.50;10.80;;;10.60;61.40;;;;;;5107211;27;20617;-88
2023/12/18 01:49:49;;;;;;;15.93;10.70;;;10.50;61.50;;;;;;5102350;27;20713;-90
2023/12/18 01:52:15;;;;;;;11.83;10.33;;;10.50;61.80;;;;;;5119370;27;20670;-87
2023/12/18 01:54:41;;;;;;;12.83;10.17;;;10.50;61.80;;;;;;5118719;27;20234;-90
2023/12/18 01:57:07;;;;;;;14.03;10.93;;;10.60;61.70;;;;;;5120106;27;20200;-85
2023/12/18 01:59:34;;;;;;;13.23;10.90;;;10.60;61.60;;;;;;5121654;27;20194;-86
2023/12/18 02:02:00;;;;;;;14.90;10.53;;;10.60;61.70;;;;;;5118775;27;20620;-86
2023/12/18 02:04:26;;;;;;;14.77;11.10;;;10.60;61.50;;;;;;5137168;27;20331;-90
2023/12/18 02:06:52;;;;;;;15.07;11.23;;;10.60;61.10;;;;;;5099711;28;20637;-87
2023/12/18 02:12:40;;;;;;;13.13;10.47;;;10.60;61.20;;;;;;5135643;27;20270;-88
2023/12/18 02:15:06;;;;;;;14.30;10.80;;;10.60;61.50;;;;;;5107386;28;20696;-89
2023/12/18 02:17:32;;;;;;;13.53;10.13;;;10.60;62.20;;;;;;5112244;27;20175;-87
2023/12/18 02:20:05;;;;;;;14.10;11.17;;;10.70;61.60;;;;;;5118292;27;20540;-87
2023/12/18 02:22:46;;;;;;;14.90;10.93;;;10.60;61.20;;;;;;5136594;27;20190;-86
2023/12/18 02:25:15;;;;;;;13.10;10.07;;;10.60;61.20;;;;;;5118068;27;20179;-87
2023/12/18 02:27:40;;;;;;;14.80;10.73;;;10.60;61.20;;;;;;5103185;28;20176;-86
2023/12/18 02:30:07;;;;;;;14.50;10.40;;;10.60;61.50;;;;;;5116872;27;20231;-88
2023/12/18 02:32:36;;;;;;;16.17;11.63;;;10.60;61.30;;;;;;5135108;27;20187;-86
2023/12/18 02:35:01;;;;;;;13.33;11.13;;;10.60;61.30;;;;;;5136588;27;20199;-88
2023/12/18 02:37:27;;;;;;;14.50;11.70;;;10.60;61.20;;;;;;5118401;27;20236;-90
2023/12/18 02:39:54;;;;;;;14.63;11.10;;;10.60;61.20;;;;;;5117363;27;20651;-87
2023/12/18 02:42:20;;;;;;;12.07;10.73;;;10.60;61.20;;;;;;5117522;27;20194;-86
2023/12/18 02:44:45;;;;;;;14.70;10.83;;;10.60;61.20;;;;;;5117840;27;20560;-87
2023/12/18 02:47:11;;;;;;;13.27;10.70;;;10.60;61.30;;;;;;5117894;27;20317;-87
2023/12/18 02:49:36;;;;;;;14.03;11.17;;;10.60;61.40;;;;;;5117913;27;20266;-87
2023/12/18 02:52:02;;;;;;;12.77;10.40;;;10.60;61.10;;;;;;5117453;27;20182;-88
2023/12/18 02:54:28;;;;;;;15.77;11.53;;;10.50;61.00;;;;;;5118198;27;20207;-89
2023/12/18 02:56:53;;;;;;;14.13;10.53;;;10.60;61.30;;;;;;5117031;27;20175;-87
2023/12/18 02:59:19;;;;;;;18.77;11.13;;;10.50;61.20;;;;;;5117654;27;20182;-88
2023/12/18 03:01:44;;;;;;;13.60;10.33;;;10.50;61.40;;;;;;5135573;27;20227;-88
2023/12/18 03:04:10;;;;;;;12.60;10.77;;;10.60;61.30;;;;;;5113851;28;20692;-87
2023/12/18 03:06:35;;;;;;;12.90;11.00;;;10.50;61.20;;;;;;5115858;28;20179;-90
2023/12/18 03:09:01;;;;;;;15.97;11.37;;;10.70;61.40;;;;;;5114781;28;20229;-90
2023/12/18 03:11:27;;;;;;;12.07;10.40;;;10.50;61.10;;;;;;5109993;28;20179;-87
2023/12/18 03:13:52;;;;;;;14.27;11.23;;;10.60;61.40;;;;;;5101283;28;20176;-87
2023/12/18 03:16:18;;;;;;;14.77;11.27;;;10.60;61.40;;;;;;5115239;28;20214;-87
2023/12/18 03:18:43;;;;;;;14.27;10.97;;;10.60;61.10;;;;;;5114226;28;20176;-90
2023/12/18 03:21:10;;;;;;;14.27;10.90;;;10.60;61.20;;;;;;5104246;28;20184;-87
2023/12/18 03:23:36;;;;;;;17.03;11.77;;;10.60;61.30;;;;;;5102198;28;20176;-88
2023/12/18 03:26:01;;;;;;;13.80;11.00;;;10.60;61.50;;;;;;5103181;28;20183;-89
2023/12/18 03:28:27;;;;;;;13.70;10.70;;;10.60;61.10;;;;;;5114255;28;20180;-90
2023/12/18 03:30:52;;;;;;;14.93;11.20;;;10.60;61.30;;;;;;5113690;28;20175;-87
2023/12/18 03:33:19;;;;;;;13.33;11.60;;;10.60;61.10;;;;;;5114781;28;20217;-87
2023/12/18 03:35:45;;;;;;;12.83;11.17;;;10.60;60.80;;;;;;5113172;28;20226;-90
2023/12/18 03:38:12;;;;;;;13.67;10.97;;;10.70;61.00;;;;;;5113198;28;20662;-88
2023/12/18 03:40:37;;;;;;;14.70;11.73;;;10.70;61.10;;;;;;5113706;28;20194;-88
2023/12/18 03:43:04;;;;;;;13.17;11.10;;;10.60;60.70;;;;;;5113426;28;20177;-87
2023/12/18 03:45:29;;;;;;;13.40;11.33;;;10.60;60.90;;;;;;5112466;28;20210;-87
2023/12/18 03:47:55;;;;;;;13.97;10.97;;;10.70;61.10;;;;;;5114232;28;20222;-87
2023/12/18 03:50:20;;;;;;;13.07;11.67;;;10.70;61.10;;;;;;5110779;28;20186;-86
2023/12/18 03:52:46;;;;;;;12.83;10.93;;;10.60;60.70;;;;;;5099056;28;20655;-88
2023/12/18 03:55:12;;;;;;;14.20;11.37;;;10.60;61.10;;;;;;5096653;28;20207;-90
2023/12/18 03:57:37;;;;;;;13.83;11.73;;;10.60;60.70;;;;;;5113704;28;20171;-89
2023/12/18 04:00:04;;;;;;;14.63;11.50;;;10.50;60.50;;;;;;5112926;28;20176;-88
2023/12/18 04:02:30;;;;;;;13.80;11.97;;;10.60;61.10;;;;;;5107809;28;20277;-88
2023/12/18 04:04:55;;;;;;;13.97;12.47;;;10.60;61.10;;;;;;5112402;28;20211;-87
2023/12/18 04:07:21;;;;;;;14.90;12.00;;;10.60;60.90;;;;;;5112746;28;20245;-88
2023/12/18 04:09:47;;;;;;;13.20;11.03;;;10.60;60.90;;;;;;5113287;28;20172;-90
2023/12/18 04:12:12;;;;;;;16.07;11.80;;;10.50;60.80;;;;;;5112855;28;20172;-87
2023/12/18 04:14:38;;;;;;;12.63;11.17;;;10.50;60.80;;;;;;5113093;28;20234;-90
2023/12/18 04:17:03;;;;;;;13.07;11.57;;;10.50;60.70;;;;;;5112668;28;20182;-86
2023/12/18 04:19:29;;;;;;;14.67;12.27;;;10.50;60.60;;;;;;5113273;28;20176;-88
2023/12/18 04:21:54;;;;;;;13.20;11.80;;;10.50;60.80;;;;;;5112529;28;20180;-89
2023/12/18 04:24:20;;;;;;;14.47;11.77;;;10.60;60.90;;;;;;5112962;28;20184;-87
2023/12/18 04:26:46;;;;;;;12.87;11.47;;;10.40;60.70;;;;;;5107246;28;20275;-90
2023/12/18 04:29:11;;;;;;;13.67;11.93;;;10.40;60.90;;;;;;5102415;28;20784;-89
2023/12/18 04:31:37;;;;;;;14.23;11.93;;;10.50;61.20;;;;;;5096605;28;20183;-87
2023/12/18 04:34:03;;;;;;;13.63;12.23;;;10.60;61.20;;;;;;5113992;28;20657;-90
2023/12/18 04:36:28;;;;;;;13.70;12.17;;;10.50;60.70;;;;;;5113574;28;20175;-88
2023/12/18 04:38:54;;;;;;;15.07;12.20;;;10.50;60.70;;;;;;5112274;28;20278;-89
2023/12/18 04:41:20;;;;;;;13.50;11.70;;;10.50;60.70;;;;;;5112420;28;20181;-88
2023/12/18 04:43:46;;;;;;;13.70;12.10;;;10.50;61.00;;;;;;5112369;28;20649;-90
2023/12/18 04:46:15;;;;;;;15.47;12.43;;;10.60;60.90;;;;;;5112711;28;20179;-90
2023/12/18 04:48:41;;;;;;;13.00;11.63;;;10.50;60.60;;;;;;5112979;28;20182;-88
2023/12/18 04:51:07;;;;;;;13.97;11.53;;;10.50;60.50;;;;;;5109779;28;20171;-87
2023/12/18 04:53:33;;;;;;;13.47;11.03;;;10.50;60.90;;;;;;5108254;28;20248;-89
2023/12/18 04:55:59;;;;;;;14.20;11.73;;;10.60;61.10;;;;;;5116334;28;20199;-87
2023/12/18 04:58:24;;;;;;;14.53;12.27;;;10.40;60.60;;;;;;5096642;28;20259;-87
2023/12/18 05:00:50;;;;;;;15.07;12.13;;;10.40;60.80;;;;;;5107982;28;20199;-90
2023/12/18 05:03:16;;;;;;;16.53;12.03;;;10.50;61.30;;;;;;5114124;27;20246;-88
2023/12/18 05:05:41;;;;;;;14.53;11.73;;;10.50;61.10;;;;;;5133382;27;20175;-88
2023/12/18 05:08:07;;;;;;;14.80;12.50;;;10.50;61.20;;;;;;5115577;28;20227;-89
2023/12/18 05:10:32;;;;;;;15.77;12.00;;;10.60;61.10;;;;;;5115547;28;20637;-90
2023/12/18 05:12:59;;;;;;;15.50;11.60;;;10.50;60.80;;;;;;5115490;28;20296;-87
2023/12/18 05:15:24;;;;;;;17.97;13.17;;;10.50;60.90;;;;;;5133551;28;20234;-89
2023/12/18 05:17:50;;;;;;;15.40;12.40;;;10.50;60.90;;;;;;5109857;28;20235;-88
2023/12/18 05:20:16;;;;;;;14.47;12.63;;;10.50;60.80;;;;;;5102950;28;20183;-89
2023/12/18 05:22:41;;;;;;;14.17;12.47;;;10.50;60.60;;;;;;5115078;28;20631;-88
2023/12/18 05:25:09;;;;;;;13.70;12.13;;;10.40;60.60;;;;;;5117804;28;20182;-87
2023/12/18 05:27:35;;;;;;;15.20;13.10;;;10.40;60.70;;;;;;5115538;28;20300;-90
2023/12/18 05:30:01;;;;;;;15.70;12.30;;;10.40;60.90;;;;;;5114994;28;20266;-87
2023/12/18 05:32:27;;;;;;;14.13;12.17;;;10.50;61.20;;;;;;5113381;28;20183;-86
2023/12/18 05:34:53;;;;;;;14.40;12.17;;;10.50;61.20;;;;;;5132002;28;20206;-85
2023/12/18 05:37:19;;;;;;;14.60;11.87;;;10.60;60.90;;;;;;5114380;28;20178;-87
2023/12/18 05:39:44;;;;;;;13.63;12.20;;;10.50;60.90;;;;;;5101835;28;20208;-86
2023/12/18 05:42:10;;;;;;;15.83;12.57;;;10.60;60.60;;;;;;5110993;28;20270;-86
2023/12/18 05:44:36;;;;;;;13.70;12.07;;;10.60;60.80;;;;;;5114656;28;20183;-85
2023/12/18 05:47:02;;;;;;;14.47;12.57;;;10.50;60.80;;;;;;5125545;28;20175;-85
2023/12/18 05:49:28;;;;;;;12.53;11.23;;;10.50;60.60;;;;;;5123769;28;20172;-85
2023/12/18 05:51:54;;;;;;;13.57;11.63;;;10.50;60.80;;;;;;5101806;28;20584;-86
2023/12/18 05:54:20;;;;;;;13.33;11.77;;;10.40;60.60;;;;;;5105231;28;20207;-86
2023/12/18 05:56:45;;;;;;;15.40;12.90;;;10.40;60.50;;;;;;5109429;28;20172;-85
2023/12/18 05:59:11;;;;;;;15.73;11.87;;;10.50;60.80;;;;;;5100475;28;20545;-85
2023/12/18 06:01:37;;;;;;;13.20;11.23;;;10.40;60.50;;;;;;5100539;28;20182;-84
2023/12/18 06:04:02;;;;;;;12.37;11.10;;;10.40;60.60;;;;;;5107894;28;20213;-85
2023/12/18 06:06:28;;;;;;;13.87;12.33;;;10.40;60.80;;;;;;5108774;28;20188;-86
2023/12/18 06:08:53;;;;;;;14.73;11.90;;;10.60;61.00;;;;;;5100186;28;20575;-86
2023/12/18 06:11:19;;;;;;;13.20;11.87;;;10.60;60.80;;;;;;5111113;28;20186;-86
2023/12/18 06:13:45;;;;;;;13.83;12.20;;;10.50;60.60;;;;;;5099127;27;20182;-86
2023/12/18 06:16:51;;;;;;;15.17;11.87;;;10.50;60.40;;;;;;5117125;27;20241;-86
2023/12/18 06:19:18;;;;;;;15.00;12.43;;;10.50;60.30;;;;;;5113590;27;20183;-85
2023/12/18 06:21:43;;;;;;;13.50;11.33;;;10.50;60.30;;;;;;5117730;27;20221;-86
2023/12/18 06:24:09;;;;;;;13.67;11.73;;;10.40;60.20;;;;;;5102790;27;20645;-86
2023/12/18 06:29:57;;;;;;;13.70;12.17;;;10.40;60.30;;;;;;5121234;27;20186;-87
2023/12/18 06:32:22;;;;;;;14.47;12.13;;;10.40;60.50;;;;;;5114085;27;20766;-85
2023/12/18 06:38:10;;;;;;;17.83;12.63;;;10.50;60.30;;;;;;5131616;27;20663;-84
2023/12/18 06:40:36;;;;;;;19.30;11.90;;;10.50;60.10;;;;;;5134481;27;20175;-84
2023/12/18 06:43:01;;;;;;;13.33;11.40;;;10.50;60.90;;;;;;5115336;27;20179;-84
2023/12/18 06:45:27;;;;;;;15.37;12.00;;;10.40;59.80;;;;;;5101897;27;20186;-85
2023/12/18 06:47:52;;;;;;;16.53;12.30;;;10.50;60.10;;;;;;5100455;27;20552;-84
2023/12/18 06:50:18;;;;;;;14.40;12.13;;;10.50;60.00;;;;;;5106216;27;20258;-85
2023/12/18 06:52:44;;;;;;;15.47;12.37;;;10.40;60.20;;;;;;5114863;27;20629;-85
2023/12/18 06:55:10;;;;;;;14.13;12.20;;;10.50;60.30;;;;;;5134332;27;20343;-85
2023/12/18 06:57:36;;;;;;;14.50;12.20;;;10.40;59.90;;;;;;5117084;27;20183;-86
2023/12/18 07:00:02;;;;;;;15.27;13.07;;;10.40;60.10;;;;;;5100713;27;20180;-86
2023/12/18 07:02:27;;;;;;;14.87;12.40;;;10.50;60.10;;;;;;5117140;27;20582;-85
2023/12/18 07:04:53;;;;;;;16.90;13.70;;;10.50;60.10;;;;;;5108304;28;20586;-86
2023/12/18 07:07:19;;;;;;;16.57;12.37;;;10.50;60.00;;;;;;5108626;27;20179;-85
2023/12/18 07:09:45;;;;;;;16.47;12.93;;;10.50;60.10;;;;;;5116773;27;20329;-84
2023/12/18 07:12:10;;;;;;;16.63;13.07;;;10.50;59.90;;;;;;5134960;27;20174;-86
2023/12/18 07:14:38;;;;;;;14.50;12.40;;;10.50;60.00;;;;;;5116879;27;20203;-86
2023/12/18 07:17:04;;;;;;;15.83;12.40;;;10.60;60.20;;;;;;5116975;27;20187;-86
2023/12/18 07:19:30;;;;;;;15.90;13.13;;;10.60;59.90;;;;;;5111739;28;20206;-85
2023/12/18 07:21:56;;;;;;;18.23;12.60;;;10.60;59.90;;;;;;5104876;27;20206;-86
2023/12/18 07:24:21;;;;;;;15.27;12.23;;;10.50;59.90;;;;;;5134869;27;20701;-86
2023/12/18 07:26:47;;;;;;;16.33;13.27;;;10.50;59.90;;;;;;5135256;27;20171;-86
2023/12/18 07:29:12;;;;;;;15.40;13.80;;;10.50;60.00;;;;;;5116581;27;20233;-86
2023/12/18 07:31:38;;;;;;;15.83;13.87;;;10.50;60.00;;;;;;5116671;27;20183;-86
2023/12/18 07:34:04;;;;;;;14.73;12.77;;;10.50;59.80;;;;;;5116036;27;20228;-85
2023/12/18 07:36:30;;;;;;;15.53;12.90;;;10.50;59.80;;;;;;5116544;27;20555;-86
2023/12/18 07:38:55;;;;;;;16.13;13.00;;;10.50;60.00;;;;;;5116499;27;20685;-86
2023/12/18 07:41:21;;;;;;;16.13;13.57;;;10.50;59.90;;;;;;5118227;27;20175;-85
2023/12/18 07:43:46;;;;;;;15.53;13.27;;;10.50;59.90;;;;;;5116366;27;20182;-86
2023/12/18 07:46:23;;;;;;;16.07;13.93;;;10.50;59.90;;;;;;5113636;27;20547;-86
2023/12/18 07:48:49;;;;;;;15.90;12.93;;;10.50;60.00;;;;;;5103437;27;20182;-86
2023/12/18 07:51:15;;;;;;;15.53;13.43;;;10.60;60.20;;;;;;5115426;27;20613;-86
2023/12/18 07:53:40;;;;;;;15.87;13.53;;;10.60;60.20;;;;;;5116519;27;20179;-85
2023/12/18 07:56:06;;;;;;;15.27;12.43;;;10.50;59.80;;;;;;5105665;28;20256;-86
2023/12/18 07:58:32;;;;;;;18.97;14.10;;;10.60;60.00;;;;;;5127791;27;20722;-86
2023/12/18 08:00:58;;;;;;;18.83;14.97;;;10.60;60.00;;;;;;5115462;27;20175;-86
2023/12/18 08:03:24;;;;;;;18.27;14.17;;;10.60;59.90;;;;;;5099459;27;20222;-86
2023/12/18 08:05:49;;;;;;;17.63;15.53;;;10.60;60.00;;;;;;5115638;27;20643;-85
2023/12/18 08:08:15;;;;;;;18.27;14.63;;;10.70;60.20;;;;;;5115434;27;20174;-86
2023/12/18 08:10:42;;;;;;;16.43;14.67;;;10.60;60.20;;;;;;5134026;27;20211;-85
2023/12/18 08:13:08;;;;;;;19.20;15.00;;;10.70;60.50;;;;;;5114201;27;20175;-86
2023/12/18 08:15:34;;;;;;;16.60;13.87;;;10.50;60.70;;;;;;5100172;27;20209;-86
2023/12/18 08:17:59;;;;;;;19.93;15.60;;;10.50;60.90;;;;;;5098885;28;20167;-87
2023/12/18 08:20:25;;;;;;;17.10;14.37;;;10.50;60.90;;;;;;5103149;28;20178;-86
2023/12/18 08:22:51;;;;;;;17.37;14.07;;;10.50;61.20;;;;;;5111104;27;20645;-86
2023/12/18 08:25:17;;;;;;;18.13;15.07;;;10.40;60.90;;;;;;5115581;27;20190;-86
2023/12/18 08:27:42;;;;;;;19.57;15.03;;;10.40;61.20;;;;;;5133660;27;20249;-86
2023/12/18 08:30:09;;;;;;;16.97;14.73;;;10.50;61.10;;;;;;5098473;27;20626;-86
2023/12/18 08:32:35;;;;;;;19.00;14.53;;;10.50;61.00;;;;;;5101973;28;20605;-85
2023/12/18 08:35:02;;;;;;;16.47;13.93;;;10.50;60.90;;;;;;5111479;27;20268;-86
2023/12/18 08:37:27;;;;;;;19.37;14.70;;;10.50;61.00;;;;;;5110451;28;20687;-86
2023/12/18 08:39:54;;;;;;;19.10;15.00;;;10.50;61.10;;;;;;5120450;27;20186;-86
2023/12/18 08:42:19;;;;;;;17.60;14.60;;;10.60;61.10;;;;;;5098684;27;20179;-86
2023/12/18 08:44:45;;;;;;;17.00;13.47;;;10.60;61.00;;;;;;5115662;27;20179;-86
2023/12/18 08:47:11;;;;;;;21.50;16.57;;;10.70;61.10;;;;;;5115174;27;20263;-86
2023/12/18 08:49:37;;;;;;;18.13;15.37;;;10.70;61.20;;;;;;5114574;27;20254;-85
2023/12/18 08:52:03;;;;;;;22.07;15.07;;;10.60;60.80;;;;;;5114694;27;20664;-86
2023/12/18 08:54:28;;;;;;;20.13;15.33;;;10.60;60.90;;;;;;5115164;27;20664;-85
2023/12/18 08:56:54;;;;;;;20.97;15.60;;;10.70;61.00;;;;;;5115315;27;20167;-86
2023/12/18 08:59:19;;;;;;;20.07;15.53;;;10.80;61.10;;;;;;5114747;27;20186;-86
2023/12/18 09:01:45;;;;;;;20.00;15.00;;;10.70;60.60;;;;;;5110279;27;20179;-87
2023/12/18 09:04:10;;;;;;;19.73;15.27;;;10.80;60.60;;;;;;5114151;28;20230;-85
2023/12/18 09:06:37;;;;;;;19.40;15.60;;;10.70;60.60;;;;;;5133063;27;20243;-85
2023/12/18 09:09:03;;;;;;;19.73;15.63;;;10.60;60.50;;;;;;5114750;28;20187;-86
2023/12/18 09:11:33;;;;;;;19.30;15.60;;;10.60;60.60;;;;;;5121179;28;20236;-86
2023/12/18 09:14:00;;;;;;;19.57;15.77;;;10.60;60.90;;;;;;5121214;28;20191;-86
2023/12/18 09:16:26;;;;;;;18.47;15.37;;;10.60;61.00;;;;;;5103124;28;20211;-86
2023/12/18 09:18:55;;;;;;;17.53;13.90;;;10.70;61.10;;;;;;5101258;28;20210;-86
2023/12/18 09:21:21;;;;;;;20.93;15.40;;;10.70;61.00;;;;;;5097969;28;20179;-86
2023/12/18 09:23:46;;;;;;;22.23;16.27;;;10.80;61.10;;;;;;5118925;28;20625;-86
2023/12/18 09:26:13;;;;;;;22.00;15.57;;;10.70;61.00;;;;;;5112525;28;20227;-85
2023/12/18 09:28:39;;;;;;;19.23;14.80;;;10.80;61.20;;;;;;5114528;28;20175;-85
2023/12/18 09:31:05;;;;;;;23.00;15.80;;;10.80;61.10;;;;;;5132852;28;20251;-86
2023/12/18 09:33:33;;;;;;;18.73;15.60;;;10.80;61.10;;;;;;5114508;28;20179;-85
2023/12/18 09:35:59;;;;;;;20.00;15.67;;;10.90;61.10;;;;;;5114963;28;20235;-86
2023/12/18 09:38:25;;;;;;;19.07;15.60;;;10.80;60.90;;;;;;5132385;28;20183;-86
2023/12/18 09:40:51;;;;;;;21.23;16.50;;;10.90;61.30;;;;;;5107037;28;20202;-86
2023/12/18 09:43:17;;;;;;;22.43;16.90;;;10.90;61.20;;;;;;5122592;28;20167;-86
2023/12/18 09:45:46;;;;;;;23.83;17.63;;;10.90;61.10;;;;;;5114041;28;20527;-86
2023/12/18 09:48:12;;;;;;;20.50;16.53;;;10.90;61.10;;;;;;5116198;27;20262;-86
2023/12/18 09:50:38;;;;;;;21.77;17.57;;;10.90;61.40;;;;;;5112405;27;20337;-85
2023/12/18 09:53:16;;;;;;;20.23;16.90;;;10.90;61.40;;;;;;5105171;27;20275;-86
2023/12/18 09:55:42;;;;;;;20.73;17.37;;;11.00;61.50;;;;;;5126489;27;20209;-87
2023/12/18 09:58:09;;;;;;;20.93;17.33;;;11.00;61.50;;;;;;5107391;27;20183;-88
2023/12/18 10:00:35;;;;;;;20.40;16.97;;;11.00;61.60;;;;;;5126691;27;20167;-84
2023/12/18 10:03:00;;;;;;;21.97;17.50;;;11.00;61.60;;;;;;5120058;27;20182;-86
2023/12/18 10:05:27;;;;;;;23.60;17.27;;;11.10;61.50;;;;;;5109850;27;20185;-86
2023/12/18 10:07:53;;;;;;;23.50;17.17;;;11.00;61.50;;;;;;5106012;28;20172;-86
2023/12/18 10:10:20;;;;;;;23.23;17.23;;;11.10;61.60;;;;;;5104528;27;20667;-87
2023/12/18 10:12:48;;;;;;;20.50;17.20;;;11.10;61.70;;;;;;5113036;27;20270;-86
2023/12/18 10:15:14;;;;;;;21.10;16.70;;;11.10;61.60;;;;;;5108524;27;20224;-87
2023/12/18 10:17:41;;;;;;;20.77;16.93;;;11.00;61.40;;;;;;5110014;27;20183;-87
2023/12/18 10:20:08;;;;;;;19.90;16.67;;;11.00;61.50;;;;;;5127784;27;20180;-86
2023/12/18 10:22:34;;;;;;;19.20;17.07;;;11.10;61.70;;;;;;5113231;27;20194;-87
2023/12/18 10:25:01;;;;;;;25.63;17.50;;;11.00;61.60;;;;;;5108591;27;20269;-86
2023/12/18 10:27:36;;;;;;;24.13;16.80;;;11.00;61.70;;;;;;5135721;27;24963;-86
2023/12/18 10:30:01;;;;;;;20.60;15.97;;;11.00;61.70;;;;;;5117400;27;20173;-86
2023/12/18 10:32:27;;;;;;;23.37;17.27;;;10.90;61.70;;;;;;5116990;27;20183;-86
2023/12/18 10:34:55;;;;;;;18.97;15.83;;;10.90;61.90;;;;;;5117662;27;20202;-86
2023/12/18 10:37:22;;;;;;;20.53;16.83;;;11.00;62.10;;;;;;5117472;27;20227;-86
2023/12/18 10:39:51;;;;;;;23.27;17.23;;;11.00;62.20;;;;;;5117419;27;20217;-86
2023/12/18 10:42:37;;;;;;;24.37;17.63;;;11.10;62.30;;;;;;5117138;27;20255;-87
2023/12/18 10:45:06;;;;;;;21.27;16.63;;;11.20;62.30;;;;;;5135235;27;20700;-87
2023/12/18 10:47:32;;;;;;;22.70;17.00;;;11.10;62.10;;;;;;5117256;27;20199;-86
2023/12/18 10:50:03;;;;;;;20.33;17.13;;;11.20;62.20;;;;;;5117090;27;20179;-87
2023/12/18 10:52:30;;;;;;;20.47;17.20;;;11.10;62.00;;;;;;5135550;27;20300;-86
2023/12/18 10:54:59;;;;;;;24.83;16.30;;;11.30;62.20;;;;;;5117318;27;20199;-86
2023/12/18 10:57:26;;;;;;;22.27;17.33;;;11.10;62.00;;;;;;5100382;27;20187;-87
2023/12/18 10:59:52;;;;;;;23.57;18.07;;;11.10;62.80;;;;;;5116610;27;20171;-87
2023/12/18 11:02:19;;;;;;;24.23;17.77;;;11.10;62.10;;;;;;5107267;28;20270;-86
2023/12/18 11:04:48;;;;;;;22.27;18.57;;;11.20;62.30;;;;;;5105330;28;20239;-86
2023/12/18 11:07:19;;;;;;;21.93;17.87;;;11.10;62.20;;;;;;5105464;27;20202;-86
2023/12/18 11:09:45;;;;;;;25.23;17.83;;;11.10;62.30;;;;;;5116836;27;20261;-86
2023/12/18 11:12:12;;;;;;;24.13;17.57;;;11.10;62.50;;;;;;5135563;27;20204;-86
2023/12/18 11:15:18;;;;;;;26.03;17.73;;;11.10;62.60;;;;;;5117407;27;20246;-85
2023/12/18 11:17:59;;;;;;;24.17;18.13;;;11.10;62.70;;;;;;5101175;28;20216;-86
2023/12/18 11:20:39;;;;;;;25.47;18.43;;;11.10;62.70;;;;;;5115226;27;20183;-85
2023/12/18 11:23:05;;;;;;;24.33;18.40;;;11.10;63.10;;;;;;5116586;27;20537;-85
2023/12/18 11:25:32;;;;;;;25.43;19.37;;;11.10;63.40;;;;;;5116619;27;20179;-86
2023/12/18 11:28:02;;;;;;;30.77;19.83;;;11.00;63.50;;;;;;5134502;27;20175;-85
2023/12/18 11:30:32;;;;;;;23.17;18.80;;;11.00;63.80;;;;;;5116577;27;20171;-86
2023/12/18 11:33:02;;;;;;;26.40;19.13;;;11.00;64.10;;;;;;5102356;28;20304;-85
2023/12/18 11:35:30;;;;;;;25.80;19.10;;;11.00;64.40;;;;;;5114806;27;20234;-86
2023/12/18 11:38:03;;;;;;;27.27;18.93;;;11.10;64.70;;;;;;5134122;27;20187;-86
2023/12/18 11:40:31;;;;;;;25.30;20.07;;;11.10;64.70;;;;;;5114466;27;20171;-86
2023/12/18 11:42:58;;;;;;;26.60;19.60;;;11.00;64.70;;;;;;5102035;27;20179;-85
2023/12/18 11:45:27;;;;;;;27.10;19.87;;;11.00;65.10;;;;;;5116194;27;20628;-86
2023/12/18 11:47:55;;;;;;;26.30;19.87;;;11.00;65.50;;;;;;5134796;27;20179;-86
2023/12/18 11:50:24;;;;;;;26.77;19.23;;;10.90;65.60;;;;;;5106985;28;20586;-87
2023/12/18 11:52:53;;;;;;;25.17;20.57;;;10.90;65.80;;;;;;5109122;27;20353;-86
2023/12/18 11:55:39;;;;;;;27.63;19.73;;;10.90;66.10;;;;;;5134042;27;20195;-86
2023/12/18 11:58:06;;;;;;;23.97;19.47;;;10.90;66.00;;;;;;5115565;27;20246;-87
2023/12/18 12:00:32;;;;;;;28.17;19.03;;;11.00;66.20;;;;;;5115973;27;20544;-85
2023/12/18 12:02:58;;;;;;;25.40;20.63;;;11.00;66.10;;;;;;5102227;28;20198;-86
2023/12/18 12:05:27;;;;;;;34.70;20.20;;;10.90;66.00;;;;;;5113225;27;20611;-87
2023/12/18 12:07:54;;;;;;;25.60;20.40;;;10.90;66.10;;;;;;5129461;27;20183;-86
2023/12/18 12:10:20;;;;;;;25.73;20.80;;;10.90;66.10;;;;;;5122034;27;20621;-86
2023/12/18 12:12:53;;;;;;;29.13;19.93;;;10.90;66.10;;;;;;5116747;27;20197;-86
2023/12/18 12:15:19;;;;;;;28.60;19.10;;;11.00;66.60;;;;;;5111964;27;20208;-86
2023/12/18 12:17:48;;;;;;;26.13;19.43;;;10.90;66.40;;;;;;5126358;27;20538;-85
2023/12/18 12:20:14;;;;;;;24.07;18.90;;;10.80;66.30;;;;;;5108047;28;20550;-86
2023/12/18 12:22:40;;;;;;;27.97;19.00;;;11.00;66.70;;;;;;5104023;28;20223;-85
2023/12/18 12:25:06;;;;;;;24.50;20.40;;;10.80;66.30;;;;;;5101757;27;20175;-86
2023/12/18 12:27:32;;;;;;;23.50;19.70;;;10.90;66.70;;;;;;5098702;27;20171;-86
2023/12/18 12:29:58;;;;;;;33.13;22.37;;;10.90;66.80;;;;;;5134089;27;20649;-86
2023/12/18 12:32:24;;;;;;;26.23;20.80;;;10.80;67.10;;;;;;5115251;27;20209;-86
2023/12/18 12:34:50;;;;;;;27.23;20.83;;;10.70;67.10;;;;;;5115287;27;20199;-86